Logan Peak - 24 Hour Table
Date & TimeSolar
Radiation
(W/m²)
Wind
Speed
(mph)
Wind
Direction
(degrees)
Air
Temperature
(°F)
Relative
Humidity
(%)
Barometeric
Pressure
(inHg)
2018/06/20 07:00 199 0.0 0 44.7 82 29.99
2018/06/20 06:00 68 0.0 0 42.4 78 29.98
2018/06/20 05:00 1 0.0 0 41.5 81 29.97
2018/06/20 04:00 0 0.0 0 41.6 84 29.99
2018/06/20 03:00 0 0.0 0 41.6 83 29.97
2018/06/20 02:00 0 0.0 0 41.4 87 30.00
2018/06/20 01:00 0 0.0 0 41.1 87 29.98
2018/06/20 00:00 0 0.0 0 41.4 87 29.98
2018/06/19 23:00 0 0.0 0 42.2 84 29.99
2018/06/19 22:00 0 0.0 0 42.6 83 30.02
2018/06/19 21:00 1 0.0 0 42.8 81 29.99
2018/06/19 20:00 58 0.0 0 45.6 78 29.98
2018/06/19 19:00 247 0.0 0 47.2 70 29.97
2018/06/19 18:00 452 0.0 0 47.4 69 29.96
2018/06/19 17:00 443 0.0 0 46.3 74 29.96
2018/06/19 16:00 601 0.0 0 45.8 69 29.97
2018/06/19 15:00 579 0.0 0 43.9 78 29.96
2018/06/19 14:00 447 0.0 0 43.0 88 29.96
2018/06/19 13:00 407 0.0 0 41.5 82 29.95
2018/06/19 12:00 509 0.0 0 40.7 90 29.94
2018/06/19 11:00 160 0.0 0 38.6 98 29.93
2018/06/19 10:00 291 0.0 0 39.0 94 29.94
2018/06/19 09:00 308 0.0 0 38.9 93 29.92
2018/06/19 08:00 312 0.0 0 38.8 90 29.92